createdAt,value
2019-01-05T00:01:37.702Z,11.70
2019-01-05T00:04:06.027Z,12.13
2019-01-05T00:06:51.303Z,10.57
2019-01-05T00:09:36.138Z,10.80
2019-01-05T00:12:22.870Z,10.93
2019-01-05T00:15:09.162Z,12.53
2019-01-05T00:17:50.974Z,11.10
2019-01-05T00:20:34.547Z,11.53
2019-01-05T00:23:03.159Z,9.87
2019-01-05T00:25:43.720Z,10.03
2019-01-05T00:28:32.914Z,10.57
2019-01-05T00:31:18.529Z,10.13
2019-01-05T00:33:59.050Z,9.37
2019-01-05T00:36:30.862Z,10.50
2019-01-05T00:39:02.280Z,9.60
2019-01-05T00:41:32.691Z,9.87
2019-01-05T00:44:05.295Z,10.80
2019-01-05T00:46:49.987Z,10.57
2019-01-05T00:49:21.853Z,9.90
2019-01-05T00:51:56.778Z,10.27
2019-01-05T00:54:42.114Z,10.27
2019-01-05T00:57:20.707Z,10.93
2019-01-05T00:59:49.545Z,11.27
2019-01-05T01:02:36.140Z,10.37
2019-01-05T01:05:13.663Z,10.63
2019-01-05T01:07:58.361Z,11.77
2019-01-05T01:10:29.798Z,12.03
2019-01-05T01:13:13.375Z,12.03
2019-01-05T01:15:58.383Z,11.47
2019-01-05T01:18:43.545Z,11.93
2019-01-05T01:21:18.940Z,11.23
2019-01-05T01:23:50.395Z,11.67
2019-01-05T01:26:22.123Z,11.97
2019-01-05T01:28:59.716Z,12.60
2019-01-05T01:31:28.243Z,12.10
2019-01-05T01:34:05.271Z,11.37
2019-01-05T01:36:40.275Z,11.53
2019-01-05T01:39:25.203Z,11.73
2019-01-05T01:42:05.470Z,11.53
2019-01-05T01:44:50.464Z,12.20
2019-01-05T01:47:36.694Z,12.27
2019-01-05T01:50:22.202Z,13.83
2019-01-05T01:53:01.816Z,12.83
2019-01-05T01:55:33.203Z,13.10
2019-01-05T01:58:11.704Z,11.23
2019-01-05T02:00:55.262Z,12.37
2019-01-05T02:03:27.070Z,11.67
2019-01-05T02:05:58.502Z,10.80
2019-01-05T02:08:28.399Z,11.50
2019-01-05T02:11:02.954Z,11.93
2019-01-05T02:13:44.024Z,10.40
2019-01-05T02:16:30.476Z,11.13
2019-01-05T02:19:02.082Z,11.87
2019-01-05T02:21:53.690Z,11.90
2019-01-05T02:24:49.579Z,11.93
2019-01-05T02:27:41.458Z,11.03
2019-01-05T02:30:51.483Z,9.57
2019-01-05T02:33:50.655Z,11.23
2019-01-05T02:36:49.987Z,10.97
2019-01-05T02:39:34.015Z,10.13
2019-01-05T02:42:29.692Z,11.40
2019-01-05T02:45:48.808Z,11.03
2019-01-05T02:48:36.158Z,11.43
2019-01-05T02:51:45.865Z,11.30
2019-01-05T02:55:02.180Z,9.67
2019-01-05T02:57:49.297Z,9.33
2019-01-05T03:00:42.626Z,10.47
2019-01-05T03:03:34.277Z,10.13
2019-01-05T03:06:47.257Z,10.73
2019-01-05T03:09:40.608Z,9.90
2019-01-05T03:12:21.348Z,9.70
2019-01-05T03:15:19.911Z,8.83
2019-01-05T03:18:42.184Z,7.77
2019-01-05T03:21:35.266Z,8.83
2019-01-05T03:24:28.213Z,8.70
2019-01-05T03:27:29.191Z,8.10
2019-01-05T03:30:19.724Z,9.27
2019-01-05T03:33:27.870Z,8.17
2019-01-05T03:36:22.141Z,8.90
2019-01-05T03:39:10.532Z,8.93
2019-01-05T03:42:06.757Z,9.73
2019-01-05T03:45:00.429Z,9.20
2019-01-05T03:47:54.700Z,8.97
2019-01-05T03:51:12.634Z,9.10
2019-01-05T03:54:24.124Z,9.30
2019-01-05T03:57:22.904Z,10.13
2019-01-05T04:00:26.760Z,9.10
2019-01-05T04:03:28.111Z,9.67
2019-01-05T04:06:34.549Z,9.00
2019-01-05T04:09:18.664Z,10.23
2019-01-05T04:12:03.207Z,10.07
2019-01-05T04:14:44.467Z,11.43
2019-01-05T04:17:34.750Z,11.80
2019-01-05T04:20:44.858Z,10.50
2019-01-05T04:23:39.026Z,9.73
2019-01-05T04:26:46.161Z,9.00
2019-01-05T04:29:30.200Z,9.67
2019-01-05T04:32:37.060Z,8.63
2019-01-05T04:35:24.250Z,8.83
2019-01-05T04:38:20.291Z,9.13
2019-01-05T04:41:10.391Z,8.90
2019-01-05T04:44:03.688Z,8.73
2019-01-05T04:46:53.892Z,9.13
2019-01-05T04:49:50.396Z,7.70
2019-01-05T04:52:49.695Z,8.33
2019-01-05T04:55:39.300Z,7.57
2019-01-05T04:58:26.465Z,6.87
2019-01-05T05:01:22.738Z,7.37
2019-01-05T05:04:26.953Z,6.07
2019-01-05T05:07:41.142Z,5.97
2019-01-05T05:10:22.336Z,4.67
2019-01-05T05:13:25.965Z,5.63
2019-01-05T05:16:16.102Z,5.00
2019-01-05T05:19:11.053Z,4.27
2019-01-05T05:22:15.716Z,4.07
2019-01-05T05:25:36.787Z,4.30
2019-01-05T05:28:25.966Z,3.33
2019-01-05T05:31:42.211Z,2.77
2019-01-05T05:34:54.060Z,3.33
2019-01-05T05:37:54.676Z,2.33
2019-01-05T05:40:51.985Z,2.80
2019-01-05T05:43:59.002Z,2.90
2019-01-05T05:47:01.647Z,2.87
2019-01-05T05:49:50.665Z,2.60
2019-01-05T05:52:41.027Z,2.90
2019-01-05T05:55:52.454Z,2.30
2019-01-05T05:58:44.437Z,2.70
2019-01-05T06:01:47.026Z,2.50
2019-01-05T06:04:39.216Z,2.10
2019-01-05T06:07:31.209Z,2.67
2019-01-05T06:10:32.612Z,2.73
2019-01-05T06:13:08.148Z,2.30
2019-01-05T06:15:52.324Z,3.07
2019-01-05T06:18:54.501Z,3.37
2019-01-05T06:21:32.765Z,2.67
2019-01-05T06:24:39.664Z,3.40
2019-01-05T06:28:03.164Z,4.60
2019-01-05T06:31:11.473Z,7.03
2019-01-05T06:34:08.071Z,2.40
2019-01-05T06:37:02.774Z,2.27
2019-01-05T06:39:57.835Z,2.23
2019-01-05T06:42:53.489Z,1.93
2019-01-05T06:46:18.720Z,2.40
2019-01-05T06:49:24.129Z,2.40
2019-01-05T06:52:17.492Z,2.70
2019-01-05T06:55:19.921Z,2.63
2019-01-05T06:58:29.536Z,2.13
2019-01-05T07:01:34.568Z,2.07
2019-01-05T07:04:29.580Z,2.57
2019-01-05T07:07:30.312Z,2.20
2019-01-05T07:10:28.835Z,2.37
2019-01-05T07:13:21.952Z,3.00
2019-01-05T07:16:39.492Z,1.90
2019-01-05T07:19:45.464Z,1.87
2019-01-05T07:22:35.920Z,4.50
2019-01-05T07:25:27.700Z,2.33
2019-01-05T07:28:48.601Z,1.80
2019-01-05T07:31:44.943Z,1.70
2019-01-05T07:34:50.623Z,2.00
2019-01-05T07:37:28.428Z,1.70
2019-01-05T07:40:23.054Z,2.10
2019-01-05T07:43:07.380Z,1.30
2019-01-05T07:45:47.089Z,1.47
2019-01-05T07:49:01.544Z,1.10
2019-01-05T07:52:25.240Z,1.83
2019-01-05T07:55:37.187Z,5.70
2019-01-05T07:58:24.604Z,1.90
2019-01-05T08:01:34.615Z,1.60
2019-01-05T08:04:06.852Z,1.87
2019-01-05T08:07:03.229Z,1.90
2019-01-05T08:09:56.404Z,1.43
2019-01-05T08:12:36.905Z,1.73
2019-01-05T08:15:30.376Z,2.00
2019-01-05T08:18:28.481Z,1.97
2019-01-05T08:21:23.705Z,3.13
2019-01-05T08:24:28.495Z,1.57
2019-01-05T08:27:41.469Z,1.10
2019-01-05T08:30:46.671Z,1.10
2019-01-05T08:33:28.158Z,0.70
2019-01-05T08:36:44.371Z,1.00
2019-01-05T08:39:57.719Z,1.10
2019-01-05T08:43:06.367Z,0.90
2019-01-05T08:45:55.348Z,1.40
2019-01-05T08:48:42.723Z,1.37
2019-01-05T08:51:21.018Z,1.20
2019-01-05T08:54:02.444Z,0.80
2019-01-05T08:56:49.892Z,0.90
2019-01-05T09:00:12.232Z,0.80
2019-01-05T09:03:09.060Z,0.90
2019-01-05T09:06:14.812Z,0.77
2019-01-05T09:09:06.058Z,0.80
2019-01-05T09:11:41.553Z,0.80
2019-01-05T09:14:49.460Z,0.70
2019-01-05T09:17:55.463Z,1.27
2019-01-05T09:21:02.055Z,3.73
2019-01-05T09:23:55.601Z,2.50
2019-01-05T09:27:01.762Z,15.40
2019-01-05T09:30:23.877Z,7.37
2019-01-05T09:33:21.882Z,1.17
2019-01-05T09:36:19.548Z,0.93
2019-01-05T09:38:51.781Z,0.50
2019-01-05T09:41:42.029Z,0.50
2019-01-05T09:44:46.204Z,1.00
2019-01-05T09:47:24.028Z,1.30
2019-01-05T09:50:14.292Z,0.63
2019-01-05T09:52:46.861Z,1.43
2019-01-05T09:55:37.195Z,0.70
2019-01-05T09:58:47.160Z,0.97
2019-01-05T10:01:46.473Z,6.37
2019-01-05T10:04:36.908Z,4.53
2019-01-05T10:07:27.173Z,2.50
2019-01-05T10:10:17.793Z,4.67
2019-01-05T10:13:09.072Z,0.90
2019-01-05T10:15:48.265Z,0.67
2019-01-05T10:18:44.268Z,0.90
2019-01-05T10:21:22.786Z,1.63
2019-01-05T10:24:27.105Z,1.60
2019-01-05T10:27:07.985Z,1.47
2019-01-05T10:30:16.085Z,1.13
2019-01-05T10:33:21.739Z,0.70
2019-01-05T10:36:36.184Z,0.77
2019-01-05T10:39:28.874Z,0.60
2019-01-05T10:42:17.605Z,0.50
2019-01-05T10:44:55.972Z,0.30
2019-01-05T10:47:48.759Z,0.37
2019-01-05T10:50:37.660Z,0.40
2019-01-05T10:53:44.672Z,0.57
2019-01-05T10:56:45.888Z,1.00
2019-01-05T10:59:33.200Z,0.90
2019-01-05T11:02:15.620Z,0.60
2019-01-05T11:05:33.469Z,1.17
2019-01-05T11:08:27.596Z,0.90
2019-01-05T11:11:17.220Z,0.77
2019-01-05T11:14:25.432Z,0.67
2019-01-05T11:17:42.227Z,0.50
2019-01-05T11:20:17.509Z,0.60
2019-01-05T11:23:10.004Z,0.93
2019-01-05T11:26:09.527Z,0.80
2019-01-05T11:29:30.435Z,1.10
2019-01-05T11:32:35.851Z,0.87
2019-01-05T11:35:32.733Z,1.00
2019-01-05T11:38:11.331Z,0.80
2019-01-05T11:41:03.508Z,1.00
2019-01-05T11:44:18.214Z,1.30
2019-01-05T11:47:25.375Z,0.90
2019-01-05T11:50:32.177Z,2.17
2019-01-05T11:53:37.941Z,1.70
2019-01-05T11:56:32.660Z,2.67
2019-01-05T11:59:17.361Z,2.10
2019-01-05T12:02:07.783Z,3.57
2019-01-05T12:05:17.528Z,2.00
2019-01-05T12:08:25.580Z,0.70
2019-01-05T12:11:06.483Z,0.97
2019-01-05T12:14:13.255Z,1.20
2019-01-05T12:17:21.301Z,1.47
2019-01-05T12:20:22.609Z,1.27
2019-01-05T12:23:40.395Z,1.10
2019-01-05T12:26:44.312Z,2.87
2019-01-05T12:29:49.062Z,2.00
2019-01-05T12:32:41.147Z,1.27
2019-01-05T12:35:52.838Z,2.00
2019-01-05T12:38:55.761Z,3.10
2019-01-05T12:42:01.041Z,2.97
2019-01-05T12:45:06.455Z,1.97
2019-01-05T12:48:22.908Z,1.10
2019-01-05T12:51:31.531Z,1.80
2019-01-05T12:54:26.623Z,1.50
2019-01-05T12:57:33.532Z,1.40
2019-01-05T13:00:37.572Z,1.17
2019-01-05T13:03:42.617Z,1.10
2019-01-05T13:06:37.911Z,0.80
2019-01-05T13:09:41.608Z,0.70
2019-01-05T13:12:30.327Z,1.00
2019-01-05T13:15:34.607Z,1.50
2019-01-05T13:18:47.671Z,1.00
2019-01-05T13:21:28.908Z,1.20
2019-01-05T13:24:16.320Z,1.83
2019-01-05T13:27:11.304Z,1.63
2019-01-05T13:30:09.069Z,1.70
2019-01-05T13:32:47.031Z,1.57
2019-01-05T13:35:40.400Z,3.77
2019-01-05T13:38:31.957Z,3.87
2019-01-05T13:41:22.169Z,1.97
2019-01-05T13:44:13.994Z,3.67
2019-01-05T13:47:13.195Z,5.30
2019-01-05T13:49:57.840Z,3.00
2019-01-05T13:52:39.054Z,3.23
2019-01-05T13:55:20.174Z,3.67
2019-01-05T13:58:03.264Z,2.43
2019-01-05T14:00:31.819Z,1.90
2019-01-05T14:03:15.774Z,1.47
2019-01-05T14:05:53.279Z,1.30
2019-01-05T14:08:21.799Z,0.90
2019-01-05T14:10:59.732Z,1.97
2019-01-05T14:13:34.040Z,1.40
2019-01-05T14:16:17.309Z,2.10
2019-01-05T14:19:02.396Z,1.67
2019-01-05T14:21:31.145Z,1.63
2019-01-05T14:24:15.842Z,1.60
2019-01-05T14:26:53.344Z,1.60
2019-01-05T14:29:30.780Z,1.40
2019-01-05T14:32:09.380Z,1.50
2019-01-05T14:34:56.071Z,1.60
2019-01-05T14:37:24.892Z,1.60
2019-01-05T14:39:59.264Z,1.43
2019-01-05T14:42:36.887Z,2.03
2019-01-05T14:45:10.612Z,1.70
2019-01-05T14:47:55.655Z,1.63
2019-01-05T14:50:39.389Z,1.73
2019-01-05T14:53:24.651Z,1.40
2019-01-05T14:55:52.947Z,1.50
2019-01-05T14:58:24.443Z,1.60
2019-01-05T15:00:59.184Z,1.70
2019-01-05T15:03:42.503Z,1.50
2019-01-05T15:06:28.510Z,1.70
2019-01-05T15:09:00.210Z,2.60
2019-01-05T15:11:37.541Z,1.70
2019-01-05T15:14:15.537Z,1.97
2019-01-05T15:16:44.999Z,2.17
2019-01-05T15:19:16.664Z,1.97
2019-01-05T15:22:00.447Z,2.70
2019-01-05T15:24:31.601Z,2.50
2019-01-05T15:27:02.786Z,2.30
2019-01-05T15:29:34.312Z,2.60
2019-01-05T15:32:12.184Z,2.80
2019-01-05T15:34:59.240Z,2.97
2019-01-05T15:37:44.286Z,2.87
2019-01-05T15:40:29.220Z,2.60
2019-01-05T15:43:14.638Z,3.80
2019-01-05T15:45:44.215Z,3.00
2019-01-05T15:48:15.920Z,5.37
2019-01-05T15:50:44.368Z,3.60
2019-01-05T15:53:29.066Z,3.07
2019-01-05T15:56:13.937Z,3.47
2019-01-05T15:58:42.365Z,3.23
2019-01-05T16:01:23.023Z,3.03
2019-01-05T16:04:03.633Z,3.43
2019-01-05T16:06:32.805Z,3.77
2019-01-05T16:09:13.161Z,3.53
2019-01-05T16:11:57.061Z,4.17
2019-01-05T16:14:28.238Z,4.37
2019-01-05T16:16:56.730Z,4.60
2019-01-05T16:19:34.240Z,5.27
2019-01-05T16:22:05.863Z,5.27
2019-01-05T16:24:49.615Z,5.63
2019-01-05T16:27:18.046Z,4.70
2019-01-05T16:29:58.788Z,5.10
2019-01-05T16:32:43.990Z,5.27
2019-01-05T16:35:12.424Z,5.50
2019-01-05T16:37:40.859Z,5.87
2019-01-05T16:40:09.271Z,4.40
2019-01-05T16:42:43.799Z,5.20
2019-01-05T16:45:12.247Z,4.53
2019-01-05T16:47:46.557Z,5.17
2019-01-05T16:50:30.131Z,4.27
2019-01-05T16:52:58.855Z,4.70
2019-01-05T16:55:27.200Z,4.13
2019-01-05T16:57:58.647Z,4.40
2019-01-05T17:00:43.440Z,4.27
2019-01-05T17:03:27.131Z,5.27
2019-01-05T17:05:58.849Z,4.37
2019-01-05T17:08:39.158Z,4.90
2019-01-05T17:11:23.982Z,5.23
2019-01-05T17:14:00.664Z,5.70
2019-01-05T17:16:37.968Z,7.13
2019-01-05T17:19:16.409Z,6.57
2019-01-05T17:21:50.635Z,5.77
2019-01-05T17:24:31.192Z,7.20
2019-01-05T17:27:16.524Z,5.80
2019-01-05T17:29:45.311Z,7.10
2019-01-05T17:32:13.783Z,6.63
2019-01-05T17:34:43.357Z,6.53
2019-01-05T17:37:23.917Z,7.50
2019-01-05T17:40:07.528Z,6.43
2019-01-05T17:42:53.480Z,5.77
2019-01-05T17:45:21.925Z,6.97
2019-01-05T17:47:56.144Z,7.63
2019-01-05T17:50:41.236Z,7.20
2019-01-05T17:53:24.393Z,7.70
2019-01-05T17:55:55.750Z,6.73
2019-01-05T17:58:31.046Z,7.73
2019-01-05T18:01:08.353Z,7.77
2019-01-05T18:03:45.921Z,6.60
2019-01-05T18:06:14.268Z,7.07
2019-01-05T18:08:42.841Z,7.10
2019-01-05T18:11:11.398Z,7.67
2019-01-05T18:13:51.676Z,6.53
2019-01-05T18:16:32.056Z,7.30
2019-01-05T18:19:03.256Z,7.40
2019-01-05T18:21:40.462Z,6.63
2019-01-05T18:24:18.211Z,5.83
2019-01-05T18:26:59.346Z,6.33
2019-01-05T18:29:36.649Z,6.20
2019-01-05T18:32:21.777Z,4.97
2019-01-05T18:35:08.628Z,5.63
2019-01-05T18:37:46.645Z,5.23
2019-01-05T18:40:31.455Z,4.83
2019-01-05T18:42:59.916Z,5.20
2019-01-05T18:45:37.372Z,5.93
2019-01-05T18:48:22.493Z,5.40
2019-01-05T18:51:03.723Z,5.03
2019-01-05T18:53:41.426Z,4.67
2019-01-05T18:56:25.876Z,5.10
2019-01-05T18:59:03.357Z,4.27
2019-01-05T19:01:37.789Z,4.50
2019-01-05T19:04:18.320Z,4.70
2019-01-05T19:06:49.275Z,5.40
2019-01-05T19:09:34.708Z,4.60
2019-01-05T19:12:19.792Z,5.17
2019-01-05T19:14:57.061Z,4.97
2019-01-05T19:17:28.526Z,4.27
2019-01-05T19:19:56.976Z,5.67
2019-01-05T19:22:42.094Z,4.83
2019-01-05T19:25:10.798Z,4.53
2019-01-05T19:27:42.461Z,5.20
2019-01-05T19:30:29.421Z,4.90
2019-01-05T19:33:14.336Z,4.47
2019-01-05T19:35:51.673Z,4.87
2019-01-05T19:38:23.448Z,5.80
2019-01-05T19:41:12.796Z,5.33
2019-01-05T19:44:00.562Z,4.33
2019-01-05T19:46:46.164Z,5.37
2019-01-05T19:49:26.511Z,5.40
2019-01-05T19:52:11.695Z,4.93
2019-01-05T19:54:43.419Z,5.50
2019-01-05T19:57:24.000Z,5.33
2019-01-05T20:00:05.530Z,4.20
2019-01-05T20:02:37.228Z,6.13
2019-01-05T20:05:06.843Z,6.13
2019-01-05T20:07:51.770Z,6.80
2019-01-05T20:10:29.300Z,6.27
2019-01-05T20:13:15.895Z,6.00
2019-01-05T20:15:50.440Z,6.13
2019-01-05T20:18:35.273Z,5.37
2019-01-05T20:21:04.975Z,4.80
2019-01-05T20:23:49.964Z,4.73
2019-01-05T20:26:35.210Z,4.67
2019-01-05T20:29:03.624Z,5.20
2019-01-05T20:31:37.871Z,5.20
2019-01-05T20:34:06.361Z,5.10
2019-01-05T20:36:50.215Z,5.33
2019-01-05T20:39:27.892Z,4.93
2019-01-05T20:41:56.312Z,5.30
2019-01-05T20:44:42.115Z,5.63
2019-01-05T20:47:28.993Z,5.27
2019-01-05T20:50:14.214Z,5.23
2019-01-05T20:52:59.047Z,5.73
2019-01-05T20:55:33.464Z,5.37
2019-01-05T20:58:13.839Z,5.43
2019-01-05T21:00:48.151Z,6.40
2019-01-05T21:03:16.812Z,6.50
2019-01-05T21:05:45.269Z,7.60
2019-01-05T21:08:25.701Z,8.43
2019-01-05T21:11:06.580Z,6.43
2019-01-05T21:13:43.640Z,6.57
2019-01-05T21:16:18.099Z,7.20
2019-01-05T21:18:52.513Z,7.07
2019-01-05T21:21:23.466Z,5.50
2019-01-05T21:23:51.959Z,6.00
2019-01-05T21:26:37.000Z,7.50
2019-01-05T21:29:18.751Z,6.63
2019-01-05T21:32:03.903Z,5.43
2019-01-05T21:34:35.753Z,7.07
2019-01-05T21:37:16.694Z,6.43
2019-01-05T21:39:45.278Z,6.33
2019-01-05T21:42:13.745Z,6.47
2019-01-05T21:44:58.992Z,6.37
2019-01-05T21:47:44.059Z,6.53
2019-01-05T21:50:29.124Z,5.53
2019-01-05T21:53:00.342Z,6.23
2019-01-05T21:55:28.754Z,7.90
2019-01-05T21:58:04.320Z,5.53
2019-01-05T22:00:35.456Z,5.23
2019-01-05T22:03:07.205Z,5.37
2019-01-05T22:05:52.049Z,4.93
2019-01-05T22:08:23.506Z,6.00
2019-01-05T22:11:03.827Z,4.63
2019-01-05T22:13:33.268Z,5.07
2019-01-05T22:16:07.955Z,5.00
2019-01-05T22:18:45.339Z,4.37
2019-01-05T22:21:28.972Z,3.43
2019-01-05T22:24:13.949Z,3.77
2019-01-05T22:26:48.259Z,3.70
2019-01-05T22:29:19.544Z,3.93
2019-01-05T22:31:54.284Z,3.80
2019-01-05T22:34:32.153Z,3.70
2019-01-05T22:37:00.833Z,3.33
2019-01-05T22:39:46.064Z,3.53
2019-01-05T22:42:14.577Z,3.40
2019-01-05T22:44:43.009Z,3.63
2019-01-05T22:47:14.453Z,3.80
2019-01-05T22:49:52.097Z,3.47
2019-01-05T22:52:21.108Z,3.53
2019-01-05T22:54:58.617Z,2.97
2019-01-05T22:57:33.178Z,3.40
2019-01-05T23:00:20.003Z,3.50
2019-01-05T23:02:51.838Z,3.50
2019-01-05T23:05:35.524Z,3.10
2019-01-05T23:08:10.021Z,3.33
2019-01-05T23:10:44.312Z,3.60
2019-01-05T23:13:27.958Z,3.57
2019-01-05T23:16:05.388Z,3.47
2019-01-05T23:18:33.816Z,2.80
2019-01-05T23:21:19.067Z,2.63
2019-01-05T23:23:47.465Z,2.47
2019-01-05T23:26:33.287Z,2.63
2019-01-05T23:29:16.565Z,2.83
2019-01-05T23:31:47.772Z,3.00
2019-01-05T23:34:16.322Z,2.83
2019-01-05T23:37:01.832Z,2.87
2019-01-05T23:39:30.268Z,2.47
2019-01-05T23:42:13.992Z,2.30
2019-01-05T23:44:45.145Z,2.67
2019-01-05T23:47:17.871Z,2.77
2019-01-05T23:50:04.344Z,2.20
2019-01-05T23:52:47.868Z,2.50
2019-01-05T23:55:25.291Z,2.20
2019-01-05T23:58:02.883Z,2.50
